createdAt,value
2023-06-21T00:01:01.819Z,19.79
2023-06-21T00:03:59.848Z,19.84
2023-06-21T00:06:41.342Z,19.83
2023-06-21T00:09:15.523Z,19.86
2023-06-21T00:11:48.068Z,19.87
2023-06-21T00:14:42.393Z,19.88
2023-06-21T00:17:21.798Z,19.89
2023-06-21T00:20:07.696Z,19.90
2023-06-21T00:23:04.089Z,19.92
2023-06-21T00:25:39.648Z,19.92
2023-06-21T00:28:29.045Z,19.94
2023-06-21T00:31:33.342Z,19.97
2023-06-21T00:34:09.666Z,20.00
2023-06-21T00:36:45.664Z,19.98
2023-06-21T00:39:52.549Z,20.00
2023-06-21T00:42:34.142Z,20.03
2023-06-21T00:45:09.746Z,20.02
2023-06-21T00:47:50.406Z,20.02
2023-06-21T00:50:27.358Z,20.03
2023-06-21T00:53:10.465Z,20.02
2023-06-21T00:55:41.817Z,20.04
2023-06-21T00:58:13.814Z,20.08
2023-06-21T01:00:47.158Z,20.11
2023-06-21T01:03:18.439Z,20.14
2023-06-21T01:06:03.864Z,20.14
2023-06-21T01:08:43.310Z,20.15
2023-06-21T01:11:28.362Z,20.15
2023-06-21T01:14:28.764Z,20.16
2023-06-21T01:24:44.035Z,20.14
2023-06-21T01:27:53.723Z,20.13
2023-06-21T01:30:35.774Z,20.14
2023-06-21T01:33:20.102Z,20.12
2023-06-21T01:35:57.699Z,20.10
2023-06-21T01:38:31.101Z,20.09
2023-06-21T01:41:02.802Z,20.09
2023-06-21T01:43:35.440Z,20.07
2023-06-21T01:46:37.118Z,20.05
2023-06-21T01:49:12.018Z,20.01
2023-06-21T01:51:49.468Z,19.98
2023-06-21T01:54:21.709Z,19.94
2023-06-21T01:57:02.763Z,19.92
2023-06-21T01:59:35.946Z,19.92
2023-06-21T02:02:11.796Z,19.92
2023-06-21T02:04:50.688Z,19.93
2023-06-21T02:07:23.333Z,19.93
2023-06-21T02:09:54.858Z,19.94
2023-06-21T02:12:36.716Z,19.96
2023-06-21T02:15:18.256Z,19.97
2023-06-21T02:17:51.121Z,19.98
2023-06-21T02:20:30.407Z,19.99
2023-06-21T02:23:11.451Z,19.94
2023-06-21T02:25:57.699Z,20.04
2023-06-21T02:28:36.653Z,20.09
2023-06-21T02:31:37.014Z,20.13
2023-06-21T02:34:10.128Z,20.15
2023-06-21T02:36:43.480Z,20.10
2023-06-21T02:40:00.596Z,20.07
2023-06-21T02:43:05.100Z,20.08
2023-06-21T02:45:37.922Z,20.12
2023-06-21T02:48:11.344Z,20.21
2023-06-21T02:50:50.919Z,20.30
2023-06-21T02:53:34.065Z,20.35
2023-06-21T02:56:05.675Z,20.38
2023-06-21T02:58:43.231Z,20.42
2023-06-21T03:01:18.772Z,20.49
2023-06-21T03:03:53.647Z,20.57
2023-06-21T03:06:49.735Z,20.65
2023-06-21T03:09:49.389Z,20.71
2023-06-21T03:12:45.689Z,20.79
2023-06-21T03:15:21.059Z,20.87
2023-06-21T03:18:39.574Z,20.94
2023-06-21T03:21:23.467Z,21.00
2023-06-21T03:23:59.042Z,21.04
2023-06-21T03:26:51.554Z,21.07
2023-06-21T03:29:47.252Z,21.09
2023-06-21T03:32:17.680Z,21.10
2023-06-21T03:34:59.467Z,21.10
2023-06-21T03:37:41.808Z,21.10
2023-06-21T03:40:34.225Z,21.11
2023-06-21T03:47:07.142Z,21.23
2023-06-21T03:50:00.249Z,21.25
2023-06-21T03:52:52.957Z,21.28
2023-06-21T03:55:28.312Z,21.32
2023-06-21T03:58:05.830Z,21.34
2023-06-21T04:00:39.900Z,21.35
2023-06-21T04:06:09.455Z,21.37
2023-06-21T04:08:45.997Z,21.36
2023-06-21T04:11:22.054Z,21.35
2023-06-21T04:14:00.537Z,21.37
2023-06-21T04:16:46.887Z,21.43
2023-06-21T04:19:26.691Z,21.47
2023-06-21T04:22:24.624Z,21.51
2023-06-21T04:25:19.684Z,21.52
2023-06-21T04:27:54.758Z,21.48
2023-06-21T04:31:07.211Z,21.47
2023-06-21T04:33:44.236Z,21.49
2023-06-21T04:36:27.127Z,21.51
2023-06-21T04:38:58.050Z,21.56
2023-06-21T04:41:34.219Z,21.59
2023-06-21T04:44:09.670Z,21.65
2023-06-21T04:46:46.013Z,21.67
2023-06-21T04:49:29.006Z,21.62
2023-06-21T04:52:03.140Z,21.73
2023-06-21T04:54:37.780Z,21.80
2023-06-21T04:57:19.060Z,21.83
2023-06-21T05:00:45.221Z,21.99
2023-06-21T05:03:24.866Z,22.19
2023-06-21T05:06:05.470Z,22.30
2023-06-21T05:09:01.639Z,22.50
2023-06-21T05:12:04.217Z,22.63
2023-06-21T05:14:46.471Z,22.78
2023-06-21T05:17:18.011Z,22.87
2023-06-21T05:20:04.499Z,22.96
2023-06-21T05:22:45.371Z,23.05
2023-06-21T05:25:21.413Z,23.09
2023-06-21T05:28:02.316Z,23.07
2023-06-21T05:30:33.152Z,23.17
2023-06-21T05:33:29.158Z,23.32
2023-06-21T05:36:53.859Z,23.44
2023-06-21T05:39:28.451Z,23.42
2023-06-21T05:42:15.541Z,23.34
2023-06-21T05:45:13.804Z,23.32
2023-06-21T05:47:50.565Z,23.38
2023-06-21T05:50:34.201Z,23.41
2023-06-21T05:53:20.899Z,23.54
2023-06-21T05:56:01.142Z,23.72
2023-06-21T05:58:45.568Z,23.91
2023-06-21T06:01:25.148Z,23.93
2023-06-21T06:04:20.386Z,23.90
2023-06-21T06:07:14.592Z,23.96
2023-06-21T06:09:53.374Z,24.02
2023-06-21T06:13:07.028Z,24.14
2023-06-21T06:16:19.022Z,24.28
2023-06-21T06:20:01.405Z,24.37
2023-06-21T06:22:46.315Z,24.53
2023-06-21T06:25:49.291Z,24.64
2023-06-21T06:28:26.938Z,24.80
2023-06-21T06:31:18.664Z,24.89
2023-06-21T06:34:12.308Z,24.94
2023-06-21T06:37:32.725Z,24.96
2023-06-21T06:40:23.087Z,25.07
2023-06-21T06:43:28.349Z,25.08
2023-06-21T06:46:18.365Z,24.98
2023-06-21T06:49:06.363Z,24.93
2023-06-21T06:51:59.634Z,24.92
2023-06-21T07:22:40.614Z,26.55
2023-06-21T07:30:17.438Z,26.21
2023-06-21T07:34:27.777Z,26.33
2023-06-21T07:41:36.872Z,26.27
2023-06-21T07:48:21.442Z,25.84
2023-06-21T07:51:14.318Z,25.71
2023-06-21T07:58:35.562Z,25.69
2023-06-21T08:01:22.073Z,25.72
2023-06-21T08:08:01.933Z,25.89
2023-06-21T08:10:39.856Z,25.87
2023-06-21T08:13:43.192Z,25.95
2023-06-21T08:17:03.465Z,26.13
2023-06-21T08:19:49.043Z,26.24
2023-06-21T08:22:30.349Z,26.18
2023-06-21T08:25:08.922Z,26.09
2023-06-21T08:27:50.875Z,26.10
2023-06-21T08:30:38.085Z,26.20
2023-06-21T08:35:59.937Z,26.44
2023-06-21T08:38:36.688Z,26.41
2023-06-21T08:41:07.328Z,26.30
2023-06-21T08:44:11.076Z,26.25
2023-06-21T08:47:01.899Z,26.20
2023-06-21T08:49:43.532Z,26.12
2023-06-21T08:52:48.299Z,26.11
2023-06-21T08:55:32.083Z,26.25
2023-06-21T08:58:14.103Z,26.36
2023-06-21T09:01:15.471Z,26.42
2023-06-21T09:04:17.560Z,26.42
2023-06-21T09:10:32.884Z,26.72
2023-06-21T09:13:08.647Z,26.84
2023-06-21T09:16:29.763Z,26.97
2023-06-21T09:19:09.261Z,27.16
2023-06-21T09:21:46.062Z,27.32
2023-06-21T09:28:35.604Z,27.28
2023-06-21T09:31:34.833Z,27.06
2023-06-21T09:34:17.363Z,26.81
2023-06-21T09:40:33.143Z,26.33
2023-06-21T09:43:31.954Z,26.12
2023-06-21T09:46:52.671Z,25.97
2023-06-21T09:49:48.052Z,25.85
2023-06-21T09:52:50.801Z,25.76
2023-06-21T09:55:49.440Z,25.69
2023-06-21T09:58:44.086Z,25.57
2023-06-21T10:01:37.197Z,25.21
2023-06-21T10:04:56.212Z,24.68
2023-06-21T10:07:48.327Z,24.18
2023-06-21T10:10:54.963Z,23.78
2023-06-21T10:13:59.274Z,23.44
2023-06-21T10:16:45.765Z,23.21
2023-06-21T10:19:25.779Z,23.04
2023-06-21T10:22:10.159Z,22.97
2023-06-21T10:24:50.990Z,22.95
2023-06-21T10:28:24.443Z,22.99
2023-06-21T10:31:04.614Z,23.08
2023-06-21T10:39:33.109Z,23.60
2023-06-21T10:42:33.051Z,24.08
2023-06-21T10:45:09.705Z,24.48
2023-06-21T10:48:45.284Z,24.82
2023-06-21T10:51:58.059Z,25.20
2023-06-21T10:55:28.989Z,25.59
2023-06-21T10:58:10.428Z,25.92
2023-06-21T11:01:51.912Z,26.06
2023-06-21T11:05:02.292Z,26.29
2023-06-21T11:07:49.164Z,26.38
2023-06-21T11:10:54.523Z,26.39
2023-06-21T11:13:43.867Z,26.44
2023-06-21T11:16:22.501Z,26.51
2023-06-21T11:19:03.165Z,26.64
2023-06-21T11:21:58.823Z,26.79
2023-06-21T11:30:34.668Z,26.89
2023-06-21T11:33:02.552Z,26.89
2023-06-21T11:35:51.346Z,26.95
2023-06-21T11:38:20.476Z,27.07
2023-06-21T11:40:48.236Z,27.18
2023-06-21T11:43:20.009Z,27.32
2023-06-21T11:45:57.088Z,27.50
2023-06-21T11:48:28.781Z,27.70
2023-06-21T11:50:58.243Z,27.84
2023-06-21T11:53:31.783Z,27.92
2023-06-21T11:56:01.476Z,27.93
2023-06-21T11:58:29.327Z,27.98
2023-06-21T12:00:57.277Z,28.01
2023-06-21T12:03:29.181Z,28.00
2023-06-21T12:05:59.047Z,28.09
2023-06-21T12:08:37.713Z,28.20
2023-06-21T12:11:09.312Z,28.33
2023-06-21T12:13:38.685Z,28.40
2023-06-21T12:16:08.027Z,28.47
2023-06-21T12:18:37.749Z,28.40
2023-06-21T12:21:06.620Z,28.27
2023-06-21T12:23:35.859Z,28.28
2023-06-21T12:26:04.954Z,28.38
2023-06-21T12:28:33.622Z,28.46
2023-06-21T12:31:06.288Z,28.50
2023-06-21T12:33:38.414Z,28.56
2023-06-21T12:36:32.292Z,28.56
2023-06-21T12:39:01.493Z,28.55
2023-06-21T12:41:30.942Z,28.62
2023-06-21T12:44:03.601Z,28.69
2023-06-21T12:46:41.056Z,28.77
2023-06-21T12:49:09.745Z,28.89
2023-06-21T12:51:38.065Z,29.03
2023-06-21T12:54:06.726Z,29.08
2023-06-21T12:56:42.292Z,29.07
2023-06-21T12:59:10.037Z,29.02
2023-06-21T13:01:38.605Z,29.07
2023-06-21T13:04:09.865Z,29.04
2023-06-21T13:06:39.673Z,29.07
2023-06-21T13:09:07.754Z,29.10
2023-06-21T13:11:35.714Z,29.13
2023-06-21T13:14:04.277Z,29.12
2023-06-21T13:16:31.989Z,29.15
2023-06-21T13:19:00.136Z,29.20
2023-06-21T13:21:29.479Z,29.26
2023-06-21T13:24:00.678Z,29.32
2023-06-21T13:26:28.603Z,29.39
2023-06-21T13:28:57.462Z,29.44
2023-06-21T13:31:25.632Z,29.52
2023-06-21T13:33:54.925Z,29.54
2023-06-21T13:36:24.102Z,29.54
2023-06-21T13:38:51.892Z,29.59
2023-06-21T13:41:19.878Z,29.67
2023-06-21T13:43:48.276Z,29.70
2023-06-21T13:46:16.586Z,29.74
2023-06-21T13:48:45.636Z,29.86
2023-06-21T13:51:13.452Z,30.02
2023-06-21T13:53:45.373Z,30.13
2023-06-21T13:56:13.280Z,30.14
2023-06-21T13:58:46.389Z,30.23
2023-06-21T14:01:14.160Z,30.29
2023-06-21T14:03:42.265Z,30.33
2023-06-21T14:06:10.176Z,30.39
2023-06-21T14:08:37.881Z,30.43
2023-06-21T14:11:05.494Z,30.34
2023-06-21T14:13:33.194Z,30.36
2023-06-21T14:16:02.072Z,30.48
2023-06-21T14:18:42.071Z,30.62
2023-06-21T14:21:15.709Z,30.66
2023-06-21T14:23:44.725Z,30.71
2023-06-21T14:26:12.592Z,30.78
2023-06-21T14:28:42.358Z,30.89
2023-06-21T14:31:13.716Z,31.06
2023-06-21T14:33:41.366Z,31.19
2023-06-21T14:36:09.285Z,31.30
2023-06-21T14:38:40.176Z,31.31
2023-06-21T14:41:08.878Z,31.22
2023-06-21T14:43:37.152Z,31.19
2023-06-21T14:46:05.627Z,31.23
2023-06-21T14:48:36.106Z,31.32
2023-06-21T14:51:13.195Z,31.48
2023-06-21T14:53:41.825Z,31.55
2023-06-21T14:56:09.682Z,31.59
2023-06-21T14:58:37.561Z,31.69
2023-06-21T15:01:06.807Z,31.67
2023-06-21T15:03:35.548Z,31.58
2023-06-21T15:06:06.556Z,31.51
2023-06-21T15:08:35.584Z,31.49
2023-06-21T15:11:03.425Z,31.48
2023-06-21T15:13:31.674Z,31.40
2023-06-21T15:16:01.693Z,31.39
2023-06-21T15:18:29.531Z,31.37
2023-06-21T15:20:57.114Z,31.30
2023-06-21T15:23:26.980Z,31.22
2023-06-21T15:25:54.979Z,31.14
2023-06-21T15:28:22.728Z,31.05
2023-06-21T15:30:50.629Z,30.93
2023-06-21T15:33:18.852Z,30.91
2023-06-21T15:35:48.982Z,31.00
2023-06-21T15:38:18.061Z,31.06
2023-06-21T15:40:45.836Z,31.00
2023-06-21T15:43:14.919Z,30.90
2023-06-21T15:45:43.165Z,30.87
2023-06-21T15:48:14.683Z,30.93
2023-06-21T15:50:44.182Z,30.97
2023-06-21T15:53:13.911Z,31.02
2023-06-21T15:55:41.781Z,30.97
2023-06-21T15:58:12.507Z,30.88
2023-06-21T16:00:42.396Z,30.83
2023-06-21T16:03:11.408Z,30.82
2023-06-21T16:05:39.576Z,30.89
2023-06-21T16:08:08.373Z,30.89
2023-06-21T16:10:38.246Z,30.73
2023-06-21T16:13:07.488Z,30.64
2023-06-21T16:15:37.181Z,30.48
2023-06-21T16:18:05.185Z,30.33
2023-06-21T16:20:34.611Z,30.25
2023-06-21T16:23:03.767Z,30.26
2023-06-21T16:25:31.457Z,30.27
2023-06-21T16:27:59.775Z,30.33
2023-06-21T16:30:28.625Z,30.31
2023-06-21T16:33:00.415Z,30.23
2023-06-21T16:35:30.678Z,30.10
2023-06-21T16:37:58.962Z,29.99
2023-06-21T16:40:26.854Z,29.88
2023-06-21T16:42:54.833Z,29.86
2023-06-21T16:45:24.934Z,29.85
2023-06-21T16:47:58.340Z,29.93
2023-06-21T16:50:27.475Z,30.16
2023-06-21T16:52:56.942Z,30.30
2023-06-21T16:55:27.680Z,30.40
2023-06-21T16:57:56.107Z,30.64
2023-06-21T17:00:25.347Z,30.90
2023-06-21T17:02:56.051Z,30.87
2023-06-21T17:05:30.202Z,30.61
2023-06-21T17:07:59.788Z,30.48
2023-06-21T17:10:27.842Z,30.45
2023-06-21T17:12:56.003Z,30.34
2023-06-21T17:15:24.586Z,30.17
2023-06-21T17:17:54.087Z,29.96
2023-06-21T17:20:21.838Z,29.85
2023-06-21T17:22:51.268Z,29.76
2023-06-21T17:25:19.191Z,29.77
2023-06-21T17:27:46.927Z,29.72
2023-06-21T17:30:14.724Z,29.61
2023-06-21T17:32:42.763Z,29.48
2023-06-21T17:35:13.566Z,29.37
2023-06-21T17:37:41.603Z,29.22
2023-06-21T17:40:12.410Z,29.11
2023-06-21T17:42:41.366Z,28.92
2023-06-21T17:45:10.259Z,28.73
2023-06-21T17:47:39.410Z,28.51
2023-06-21T17:50:09.277Z,28.34
2023-06-21T17:52:37.198Z,28.16
2023-06-21T17:55:05.297Z,27.91
2023-06-21T17:57:32.973Z,27.63
2023-06-21T18:00:00.846Z,27.40
2023-06-21T18:02:28.955Z,27.16
2023-06-21T18:05:01.125Z,27.08
2023-06-21T18:07:31.216Z,26.94
2023-06-21T18:09:59.169Z,26.83
2023-06-21T18:12:28.250Z,26.71
2023-06-21T18:14:55.922Z,26.59
2023-06-21T18:17:24.090Z,26.50
2023-06-21T18:19:51.783Z,26.44
2023-06-21T18:22:26.824Z,26.35
2023-06-21T18:25:07.584Z,26.26
2023-06-21T18:27:35.783Z,26.13
2023-06-21T18:30:08.824Z,26.02
2023-06-21T18:32:39.084Z,25.91
2023-06-21T18:35:13.837Z,25.80
2023-06-21T18:37:42.178Z,25.72
2023-06-21T18:40:11.083Z,25.63
2023-06-21T18:42:48.484Z,25.58
2023-06-21T18:45:16.291Z,25.50
2023-06-21T18:47:44.263Z,25.43
2023-06-21T18:50:12.070Z,25.36
2023-06-21T18:52:41.292Z,25.30
2023-06-21T18:55:14.704Z,25.23
2023-06-21T18:57:42.429Z,25.20
2023-06-21T19:00:13.280Z,25.16
2023-06-21T19:02:41.109Z,25.07
2023-06-21T19:05:09.352Z,24.95
2023-06-21T19:07:37.070Z,24.87
2023-06-21T19:10:05.263Z,24.77
2023-06-21T19:12:38.963Z,24.70
2023-06-21T19:15:08.486Z,24.69
2023-06-21T19:17:37.072Z,24.69
2023-06-21T19:20:06.445Z,24.71
2023-06-21T19:22:34.405Z,24.75
2023-06-21T19:25:02.272Z,24.73
2023-06-21T19:27:30.028Z,24.68
2023-06-21T19:34:31.263Z,24.45
2023-06-21T19:36:59.509Z,24.35
2023-06-21T19:39:28.316Z,24.32
2023-06-21T19:42:05.509Z,24.31
2023-06-21T19:44:33.529Z,24.31
2023-06-21T19:47:01.257Z,24.28
2023-06-21T19:49:29.139Z,24.27
2023-06-21T19:51:57.418Z,24.24
2023-06-21T19:54:26.918Z,24.27
2023-06-21T19:56:54.760Z,24.25
2023-06-21T19:59:25.255Z,24.23
2023-06-21T20:06:05.941Z,24.08
2023-06-21T20:08:48.433Z,24.01
2023-06-21T20:11:16.671Z,23.98
2023-06-21T20:13:47.722Z,23.96
2023-06-21T20:20:47.896Z,24.01
2023-06-21T20:23:16.566Z,24.01
2023-06-21T20:25:45.716Z,24.04
2023-06-21T20:28:13.507Z,24.09
2023-06-21T20:35:14.071Z,24.26
2023-06-21T20:37:42.481Z,24.29
2023-06-21T21:24:25.947Z,23.97
2023-06-21T23:18:02.652Z,23.92
2023-06-21T23:50:50.786Z,23.06
2023-06-21T23:53:25.448Z,23.04
